sensor_id;sensor_type;location;lat;lon;timestamp;pressure;altitude;pressure_sealevel;temperature;humidity
14089;BME280;7120;52.890;6.040;2023-03-14T00:01:38;98635.44;;;10.29;85.09
14089;BME280;7120;52.890;6.040;2023-03-14T00:04:04;98625.00;;;10.35;85.12
14089;BME280;7120;52.890;6.040;2023-03-14T00:06:30;98623.53;;;10.37;84.71
14089;BME280;7120;52.890;6.040;2023-03-14T00:08:56;98613.03;;;10.39;84.47
14089;BME280;7120;52.890;6.040;2023-03-14T00:11:22;98618.28;;;10.48;84.13
14089;BME280;7120;52.890;6.040;2023-03-14T00:13:48;98621.81;;;10.49;85.22
14089;BME280;7120;52.890;6.040;2023-03-14T00:16:14;98626.25;;;10.37;84.51
14089;BME280;7120;52.890;6.040;2023-03-14T00:18:39;98624.66;;;10.52;84.55
14089;BME280;7120;52.890;6.040;2023-03-14T00:21:06;98627.22;;;10.45;85.29
14089;BME280;7120;52.890;6.040;2023-03-14T00:23:34;98626.28;;;10.57;84.56
14089;BME280;7120;52.890;6.040;2023-03-14T00:26:05;98624.81;;;10.59;84.24
14089;BME280;7120;52.890;6.040;2023-03-14T00:28:31;98627.59;;;10.63;84.42
14089;BME280;7120;52.890;6.040;2023-03-14T00:30:57;98624.03;;;10.78;83.92
14089;BME280;7120;52.890;6.040;2023-03-14T00:33:22;98619.66;;;10.73;83.07
14089;BME280;7120;52.890;6.040;2023-03-14T00:35:58;98627.66;;;10.82;83.17
14089;BME280;7120;52.890;6.040;2023-03-14T00:38:25;98624.75;;;10.75;82.88
14089;BME280;7120;52.890;6.040;2023-03-14T00:40:51;98624.34;;;10.73;83.70
14089;BME280;7120;52.890;6.040;2023-03-14T00:43:17;98630.34;;;10.63;84.24
14089;BME280;7120;52.890;6.040;2023-03-14T00:45:43;98618.03;;;10.53;84.22
14089;BME280;7120;52.890;6.040;2023-03-14T00:48:08;98631.97;;;10.48;84.90
14089;BME280;7120;52.890;6.040;2023-03-14T00:50:33;98627.22;;;10.45;85.01
14089;BME280;7120;52.890;6.040;2023-03-14T00:52:59;98624.75;;;10.40;85.21
14089;BME280;7120;52.890;6.040;2023-03-14T00:55:24;98621.66;;;10.41;85.31
14089;BME280;7120;52.890;6.040;2023-03-14T00:57:50;98619.31;;;10.24;85.96
14089;BME280;7120;52.890;6.040;2023-03-14T01:00:15;98613.97;;;10.47;85.58
14089;BME280;7120;52.890;6.040;2023-03-14T01:02:41;98608.44;;;10.43;85.24
14089;BME280;7120;52.890;6.040;2023-03-14T01:05:06;98615.66;;;10.52;85.28
14089;BME280;7120;52.890;6.040;2023-03-14T01:07:32;98612.63;;;10.57;85.10
14089;BME280;7120;52.890;6.040;2023-03-14T01:09:58;98615.47;;;10.60;84.85
14089;BME280;7120;52.890;6.040;2023-03-14T01:12:23;98613.88;;;10.59;84.60
14089;BME280;7120;52.890;6.040;2023-03-14T01:14:49;98609.56;;;10.58;84.14
14089;BME280;7120;52.890;6.040;2023-03-14T01:17:14;98610.31;;;10.75;84.51
14089;BME280;7120;52.890;6.040;2023-03-14T01:19:39;98608.31;;;10.56;84.16
14089;BME280;7120;52.890;6.040;2023-03-14T01:22:05;98599.22;;;10.67;84.64
14089;BME280;7120;52.890;6.040;2023-03-14T01:24:30;98609.19;;;10.60;85.76
14089;BME280;7120;52.890;6.040;2023-03-14T01:26:55;98613.94;;;10.63;85.32
14089;BME280;7120;52.890;6.040;2023-03-14T01:29:21;98609.63;;;10.62;85.90
14089;BME280;7120;52.890;6.040;2023-03-14T01:31:46;98603.63;;;10.56;84.83
14089;BME280;7120;52.890;6.040;2023-03-14T01:34:11;98593.00;;;10.70;84.62
14089;BME280;7120;52.890;6.040;2023-03-14T01:36:37;98591.59;;;10.57;85.45
14089;BME280;7120;52.890;6.040;2023-03-14T01:39:02;98593.34;;;10.50;86.76
14089;BME280;7120;52.890;6.040;2023-03-14T01:41:28;98595.53;;;10.60;85.58
14089;BME280;7120;52.890;6.040;2023-03-14T01:43:54;98589.69;;;10.61;85.50
14089;BME280;7120;52.890;6.040;2023-03-14T01:51:29;98586.44;;;10.56;86.08
14089;BME280;7120;52.890;6.040;2023-03-14T01:54:02;98583.69;;;10.36;87.34
14089;BME280;7120;52.890;6.040;2023-03-14T01:56:30;98595.28;;;10.49;86.97
14089;BME280;7120;52.890;6.040;2023-03-14T01:58:58;98599.16;;;10.48;86.70
14089;BME280;7120;52.890;6.040;2023-03-14T02:01:25;98589.13;;;10.52;86.96
14089;BME280;7120;52.890;6.040;2023-03-14T02:03:56;98558.66;;;10.34;87.69
14089;BME280;7120;52.890;6.040;2023-03-14T02:06:27;98581.84;;;10.25;89.67
14089;BME280;7120;52.890;6.040;2023-03-14T02:08:54;98574.69;;;10.20;90.60
14089;BME280;7120;52.890;6.040;2023-03-14T02:11:20;98577.56;;;10.24;90.05
14089;BME280;7120;52.890;6.040;2023-03-14T02:13:48;98578.34;;;10.08;90.83
14089;BME280;7120;52.890;6.040;2023-03-14T02:16:13;98582.09;;;10.19;91.28
14089;BME280;7120;52.890;6.040;2023-03-14T02:18:39;98578.69;;;9.91;92.67
14089;BME280;7120;52.890;6.040;2023-03-14T02:21:49;98578.44;;;9.96;94.14
14089;BME280;7120;52.890;6.040;2023-03-14T02:24:31;98575.88;;;9.87;95.14
14089;BME280;7120;52.890;6.040;2023-03-14T02:27:16;98575.88;;;9.87;94.89
14089;BME280;7120;52.890;6.040;2023-03-14T02:30:03;98585.38;;;10.09;94.49
14089;BME280;7120;52.890;6.040;2023-03-14T02:32:31;98574.38;;;9.90;94.72
14089;BME280;7120;52.890;6.040;2023-03-14T02:35:00;98581.06;;;9.93;94.34
14089;BME280;7120;52.890;6.040;2023-03-14T02:38:34;98588.56;;;9.80;96.03
14089;BME280;7120;52.890;6.040;2023-03-14T02:40:34;98567.16;;;9.66;96.79
14089;BME280;7120;52.890;6.040;2023-03-14T02:42:59;98573.78;;;9.81;97.25
14089;BME280;7120;52.890;6.040;2023-03-14T02:47:57;98579.22;;;9.81;99.08
14089;BME280;7120;52.890;6.040;2023-03-14T02:50:26;98574.63;;;9.69;99.15
14089;BME280;7120;52.890;6.040;2023-03-14T02:52:54;98564.44;;;9.66;99.60
14089;BME280;7120;52.890;6.040;2023-03-14T02:55:21;98569.63;;;9.87;100.00
14089;BME280;7120;52.890;6.040;2023-03-14T02:57:46;98572.97;;;9.96;100.00
14089;BME280;7120;52.890;6.040;2023-03-14T03:00:11;98579.56;;;9.48;100.00
14089;BME280;7120;52.890;6.040;2023-03-14T03:02:37;98567.03;;;9.31;100.00
14089;BME280;7120;52.890;6.040;2023-03-14T03:05:02;98567.84;;;9.31;100.00
14089;BME280;7120;52.890;6.040;2023-03-14T03:07:28;98572.81;;;9.29;100.00
14089;BME280;7120;52.890;6.040;2023-03-14T03:09:53;98569.31;;;9.29;100.00
14089;BME280;7120;52.890;6.040;2023-03-14T03:12:18;98567.28;;;9.26;100.00
14089;BME280;7120;52.890;6.040;2023-03-14T03:14:44;98574.56;;;9.22;100.00
14089;BME280;7120;52.890;6.040;2023-03-14T03:17:09;98568.66;;;9.20;100.00
14089;BME280;7120;52.890;6.040;2023-03-14T03:19:35;98567.38;;;9.29;100.00
14089;BME280;7120;52.890;6.040;2023-03-14T03:22:00;98561.47;;;9.27;100.00
14089;BME280;7120;52.890;6.040;2023-03-14T03:24:26;98567.53;;;9.21;100.00
14089;BME280;7120;52.890;6.040;2023-03-14T03:26:52;98568.84;;;9.11;100.00
14089;BME280;7120;52.890;6.040;2023-03-14T03:29:17;98576.97;;;9.23;100.00
14089;BME280;7120;52.890;6.040;2023-03-14T03:31:43;98573.38;;;9.07;100.00
14089;BME280;7120;52.890;6.040;2023-03-14T03:34:11;98544.78;;;9.01;100.00
14089;BME280;7120;52.890;6.040;2023-03-14T03:36:36;98544.16;;;8.92;100.00
14089;BME280;7120;52.890;6.040;2023-03-14T03:39:01;98547.66;;;8.92;100.00
14089;BME280;7120;52.890;6.040;2023-03-14T03:41:27;98569.38;;;8.89;100.00
14089;BME280;7120;52.890;6.040;2023-03-14T03:43:52;98553.47;;;8.91;100.00
14089;BME280;7120;52.890;6.040;2023-03-14T03:46:19;98558.72;;;9.12;100.00
14089;BME280;7120;52.890;6.040;2023-03-14T03:48:44;98562.69;;;8.86;100.00
14089;BME280;7120;52.890;6.040;2023-03-14T03:51:14;98560.69;;;8.99;100.00
14089;BME280;7120;52.890;6.040;2023-03-14T03:53:41;98563.22;;;8.92;100.00
14089;BME280;7120;52.890;6.040;2023-03-14T03:56:07;98559.31;;;8.77;100.00
14089;BME280;7120;52.890;6.040;2023-03-14T03:58:32;98562.69;;;8.86;100.00
14089;BME280;7120;52.890;6.040;2023-03-14T04:00:57;98561.06;;;8.97;100.00
14089;BME280;7120;52.890;6.040;2023-03-14T04:03:23;98561.69;;;9.06;100.00
14089;BME280;7120;52.890;6.040;2023-03-14T04:06:21;98556.63;;;8.93;100.00
14089;BME280;7120;52.890;6.040;2023-03-14T04:08:47;98553.94;;;9.08;100.00
14089;BME280;7120;52.890;6.040;2023-03-14T04:11:12;98564.81;;;8.93;100.00
14089;BME280;7120;52.890;6.040;2023-03-14T04:13:37;98557.78;;;8.92;100.00
14089;BME280;7120;52.890;6.040;2023-03-14T04:16:03;98566.97;;;8.87;100.00
14089;BME280;7120;52.890;6.040;2023-03-14T04:18:28;98556.75;;;8.96;100.00
14089;BME280;7120;52.890;6.040;2023-03-14T04:20:56;98561.66;;;8.91;100.00
14089;BME280;7120;52.890;6.040;2023-03-14T04:23:23;98562.41;;;9.03;100.00
14089;BME280;7120;52.890;6.040;2023-03-14T04:25:50;98551.56;;;9.07;100.00
14089;BME280;7120;52.890;6.040;2023-03-14T04:28:15;98551.41;;;8.88;100.00
14089;BME280;7120;52.890;6.040;2023-03-14T04:30:41;98561.25;;;9.04;100.00
14089;BME280;7120;52.890;6.040;2023-03-14T04:33:06;98544.25;;;8.95;100.00
14089;BME280;7120;52.890;6.040;2023-03-14T04:35:32;98549.59;;;8.92;100.00
14089;BME280;7120;52.890;6.040;2023-03-14T04:37:58;98537.16;;;8.78;100.00
14089;BME280;7120;52.890;6.040;2023-03-14T04:40:24;98542.72;;;8.82;100.00
14089;BME280;7120;52.890;6.040;2023-03-14T04:42:49;98542.06;;;9.01;100.00
14089;BME280;7120;52.890;6.040;2023-03-14T04:45:15;98540.94;;;8.74;100.00
14089;BME280;7120;52.890;6.040;2023-03-14T04:47:40;98543.88;;;8.81;100.00
14089;BME280;7120;52.890;6.040;2023-03-14T04:50:06;98536.97;;;8.99;100.00
14089;BME280;7120;52.890;6.040;2023-03-14T04:52:31;98539.00;;;9.02;100.00
14089;BME280;7120;52.890;6.040;2023-03-14T04:54:57;98526.09;;;8.87;100.00
14089;BME280;7120;52.890;6.040;2023-03-14T04:57:22;98540.47;;;9.00;100.00
14089;BME280;7120;52.890;6.040;2023-03-14T04:59:47;98541.19;;;8.97;100.00
14089;BME280;7120;52.890;6.040;2023-03-14T05:02:13;98536.34;;;9.06;100.00
14089;BME280;7120;52.890;6.040;2023-03-14T05:04:39;98545.25;;;9.03;100.00
14089;BME280;7120;52.890;6.040;2023-03-14T05:07:04;98540.09;;;8.86;100.00
14089;BME280;7120;52.890;6.040;2023-03-14T05:09:30;98549.72;;;8.95;100.00
14089;BME280;7120;52.890;6.040;2023-03-14T05:11:55;98534.94;;;8.96;100.00
14089;BME280;7120;52.890;6.040;2023-03-14T05:14:20;98529.38;;;8.93;100.00
14089;BME280;7120;52.890;6.040;2023-03-14T05:16:46;98528.53;;;9.04;100.00
14089;BME280;7120;52.890;6.040;2023-03-14T05:19:11;98536.34;;;9.06;100.00
14089;BME280;7120;52.890;6.040;2023-03-14T05:21:37;98537.47;;;8.89;100.00
14089;BME280;7120;52.890;6.040;2023-03-14T05:24:02;98527.34;;;8.90;100.00
14089;BME280;7120;52.890;6.040;2023-03-14T05:26:27;98530.88;;;8.90;100.00
14089;BME280;7120;52.890;6.040;2023-03-14T05:28:53;98538.91;;;8.99;100.00
14089;BME280;7120;52.890;6.040;2023-03-14T05:31:18;98533.88;;;9.01;100.00
14089;BME280;7120;52.890;6.040;2023-03-14T05:33:43;98526.44;;;8.86;100.00
14089;BME280;7120;52.890;6.040;2023-03-14T05:36:09;98523.88;;;8.77;100.00
14089;BME280;7120;52.890;6.040;2023-03-14T05:38:34;98535.97;;;8.92;100.00
14089;BME280;7120;52.890;6.040;2023-03-14T05:41:00;98535.38;;;8.98;100.00
14089;BME280;7120;52.890;6.040;2023-03-14T05:43:25;98536.59;;;9.01;100.00
14089;BME280;7120;52.890;6.040;2023-03-14T05:45:50;98538.69;;;8.92;100.00
14089;BME280;7120;52.890;6.040;2023-03-14T05:48:15;98531.75;;;8.94;100.00
14089;BME280;7120;52.890;6.040;2023-03-14T05:50:42;98533.69;;;8.94;100.00
14089;BME280;7120;52.890;6.040;2023-03-14T05:53:08;98531.72;;;9.22;100.00
14089;BME280;7120;52.890;6.040;2023-03-14T05:55:33;98531.81;;;9.10;100.00
14089;BME280;7120;52.890;6.040;2023-03-14T05:57:59;98534.84;;;9.08;100.00
14089;BME280;7120;52.890;6.040;2023-03-14T06:00:24;98532.69;;;9.14;100.00
14089;BME280;7120;52.890;6.040;2023-03-14T06:02:50;98530.69;;;9.27;100.00
14089;BME280;7120;52.890;6.040;2023-03-14T06:05:15;98543.16;;;9.12;100.00
14089;BME280;7120;52.890;6.040;2023-03-14T06:07:41;98543.34;;;9.19;100.00
14089;BME280;7120;52.890;6.040;2023-03-14T06:10:07;98540.53;;;8.88;100.00
14089;BME280;7120;52.890;6.040;2023-03-14T06:12:32;98559.50;;;9.12;100.00
14089;BME280;7120;52.890;6.040;2023-03-14T06:14:58;98552.63;;;9.02;100.00
14089;BME280;7120;52.890;6.040;2023-03-14T06:17:23;98560.75;;;9.15;100.00
14089;BME280;7120;52.890;6.040;2023-03-14T06:19:48;98554.41;;;9.11;100.00
14089;BME280;7120;52.890;6.040;2023-03-14T06:22:15;98551.69;;;9.11;100.00
14089;BME280;7120;52.890;6.040;2023-03-14T06:24:40;98571.75;;;9.18;100.00
14089;BME280;7120;52.890;6.040;2023-03-14T06:27:06;98587.47;;;9.09;100.00
14089;BME280;7120;52.890;6.040;2023-03-14T06:29:31;98581.41;;;9.16;100.00
14089;BME280;7120;52.890;6.040;2023-03-14T06:31:57;98594.59;;;8.86;100.00
14089;BME280;7120;52.890;6.040;2023-03-14T06:34:22;98605.25;;;8.91;100.00
14089;BME280;7120;52.890;6.040;2023-03-14T06:36:47;98610.59;;;8.87;100.00
14089;BME280;7120;52.890;6.040;2023-03-14T06:39:13;98622.09;;;8.80;100.00
14089;BME280;7120;52.890;6.040;2023-03-14T06:41:38;98620.56;;;8.43;100.00
14089;BME280;7120;52.890;6.040;2023-03-14T06:44:04;98635.78;;;8.44;100.00
14089;BME280;7120;52.890;6.040;2023-03-14T06:46:30;98649.16;;;7.67;100.00
14089;BME280;7120;52.890;6.040;2023-03-14T06:48:55;98661.63;;;7.02;100.00
14089;BME280;7120;52.890;6.040;2023-03-14T06:51:21;98690.75;;;6.72;100.00
14089;BME280;7120;52.890;6.040;2023-03-14T06:53:46;98711.59;;;6.59;100.00
14089;BME280;7120;52.890;6.040;2023-03-14T06:56:11;98715.50;;;6.49;100.00
14089;BME280;7120;52.890;6.040;2023-03-14T06:58:37;98732.69;;;6.24;100.00
14089;BME280;7120;52.890;6.040;2023-03-14T07:01:02;98737.19;;;6.11;100.00
14089;BME280;7120;52.890;6.040;2023-03-14T07:03:28;98744.41;;;5.98;100.00
14089;BME280;7120;52.890;6.040;2023-03-14T07:05:54;98759.41;;;5.96;100.00
14089;BME280;7120;52.890;6.040;2023-03-14T07:08:19;98781.09;;;5.70;100.00
14089;BME280;7120;52.890;6.040;2023-03-14T07:10:45;98794.19;;;5.42;100.00
14089;BME280;7120;52.890;6.040;2023-03-14T07:13:10;98804.88;;;5.30;100.00
14089;BME280;7120;52.890;6.040;2023-03-14T07:15:36;98817.78;;;5.24;100.00
14089;BME280;7120;52.890;6.040;2023-03-14T07:18:01;98823.81;;;5.12;100.00
14089;BME280;7120;52.890;6.040;2023-03-14T07:20:26;98837.97;;;5.01;100.00
14089;BME280;7120;52.890;6.040;2023-03-14T07:22:52;98840.84;;;5.04;100.00
14089;BME280;7120;52.890;6.040;2023-03-14T07:25:17;98858.06;;;5.08;100.00
14089;BME280;7120;52.890;6.040;2023-03-14T07:27:44;98865.19;;;4.95;100.00
14089;BME280;7120;52.890;6.040;2023-03-14T07:30:10;98881.22;;;4.83;100.00
14089;BME280;7120;52.890;6.040;2023-03-14T07:32:36;98883.13;;;4.83;100.00
14089;BME280;7120;52.890;6.040;2023-03-14T07:35:01;98901.44;;;4.77;100.00
14089;BME280;7120;52.890;6.040;2023-03-14T07:37:27;98907.34;;;4.79;100.00
14089;BME280;7120;52.890;6.040;2023-03-14T07:39:52;98921.41;;;4.90;100.00
14089;BME280;7120;52.890;6.040;2023-03-14T07:42:18;98925.38;;;4.92;100.00
14089;BME280;7120;52.890;6.040;2023-03-14T07:44:43;98934.78;;;4.86;100.00
14089;BME280;7120;52.890;6.040;2023-03-14T07:47:08;98949.72;;;4.84;100.00
14089;BME280;7120;52.890;6.040;2023-03-14T07:49:34;98969.84;;;4.91;100.00
14089;BME280;7120;52.890;6.040;2023-03-14T07:51:59;98978.63;;;4.97;100.00
14089;BME280;7120;52.890;6.040;2023-03-14T07:54:24;98990.56;;;4.87;100.00
14089;BME280;7120;52.890;6.040;2023-03-14T07:56:50;98988.13;;;4.86;100.00
14089;BME280;7120;52.890;6.040;2023-03-14T07:59:17;98995.44;;;5.08;100.00
14089;BME280;7120;52.890;6.040;2023-03-14T08:01:43;99002.63;;;5.12;100.00
14089;BME280;7120;52.890;6.040;2023-03-14T08:04:08;99011.91;;;5.20;100.00
14089;BME280;7120;52.890;6.040;2023-03-14T08:06:35;99007.78;;;5.22;100.00
14089;BME280;7120;52.890;6.040;2023-03-14T08:09:00;99011.22;;;5.14;100.00
14089;BME280;7120;52.890;6.040;2023-03-14T08:11:26;99020.22;;;5.23;100.00
14089;BME280;7120;52.890;6.040;2023-03-14T08:13:51;99031.41;;;5.31;100.00
14089;BME280;7120;52.890;6.040;2023-03-14T08:16:17;99035.69;;;5.23;100.00
14089;BME280;7120;52.890;6.040;2023-03-14T08:18:43;99046.16;;;5.47;100.00
14089;BME280;7120;52.890;6.040;2023-03-14T08:21:09;99048.63;;;5.66;100.00
14089;BME280;7120;52.890;6.040;2023-03-14T08:23:34;99046.81;;;5.53;100.00
14089;BME280;7120;52.890;6.040;2023-03-14T08:26:00;99059.63;;;5.69;100.00
14089;BME280;7120;52.890;6.040;2023-03-14T08:28:25;99075.13;;;5.77;100.00
14089;BME280;7120;52.890;6.040;2023-03-14T08:30:56;99085.16;;;5.68;100.00
14089;BME280;7120;52.890;6.040;2023-03-14T08:33:22;99074.41;;;5.55;100.00
14089;BME280;7120;52.890;6.040;2023-03-14T08:35:47;99103.47;;;5.63;100.00
14089;BME280;7120;52.890;6.040;2023-03-14T08:38:13;99107.69;;;5.77;100.00
14089;BME280;7120;52.890;6.040;2023-03-14T08:40:38;99116.91;;;5.68;98.18
14089;BME280;7120;52.890;6.040;2023-03-14T08:43:04;99137.28;;;5.88;98.62
14089;BME280;7120;52.890;6.040;2023-03-14T08:45:29;99155.25;;;6.06;97.02
14089;BME280;7120;52.890;6.040;2023-03-14T08:47:54;99163.97;;;5.94;95.17
14089;BME280;7120;52.890;6.040;2023-03-14T08:50:20;99178.56;;;6.07;96.03
14089;BME280;7120;52.890;6.040;2023-03-14T08:52:45;99191.50;;;6.50;96.48
14089;BME280;7120;52.890;6.040;2023-03-14T08:55:11;99204.34;;;6.27;93.11
14089;BME280;7120;52.890;6.040;2023-03-14T08:57:36;99213.81;;;6.38;93.42
14089;BME280;7120;52.890;6.040;2023-03-14T09:00:03;99212.00;;;6.73;91.67
14089;BME280;7120;52.890;6.040;2023-03-14T09:02:30;99217.28;;;6.78;92.94
14089;BME280;7120;52.890;6.040;2023-03-14T09:04:55;99222.72;;;6.87;89.76
14089;BME280;7120;52.890;6.040;2023-03-14T09:07:21;99245.13;;;7.01;88.56
14089;BME280;7120;52.890;6.040;2023-03-14T09:09:48;99246.28;;;7.35;84.67
14089;BME280;7120;52.890;6.040;2023-03-14T09:12:13;99241.81;;;7.48;86.19
14089;BME280;7120;52.890;6.040;2023-03-14T09:14:39;99261.00;;;7.42;84.14
14089;BME280;7120;52.890;6.040;2023-03-14T09:17:04;99271.72;;;7.13;88.82
14089;BME280;7120;52.890;6.040;2023-03-14T09:19:30;99278.09;;;7.17;84.36
14089;BME280;7120;52.890;6.040;2023-03-14T09:21:55;99310.25;;;7.15;86.50
14089;BME280;7120;52.890;6.040;2023-03-14T09:24:20;99312.16;;;7.14;86.51
14089;BME280;7120;52.890;6.040;2023-03-14T09:26:46;99314.41;;;7.21;85.64
14089;BME280;7120;52.890;6.040;2023-03-14T09:29:11;99330.06;;;7.24;86.44
14089;BME280;7120;52.890;6.040;2023-03-14T09:31:37;99340.66;;;6.77;83.76
14089;BME280;7120;52.890;6.040;2023-03-14T09:34:02;99343.91;;;6.26;87.69
14089;BME280;7120;52.890;6.040;2023-03-14T09:36:28;99363.34;;;6.42;89.33
14089;BME280;7120;52.890;6.040;2023-03-14T09:38:53;99372.47;;;6.23;89.85
14089;BME280;7120;52.890;6.040;2023-03-14T09:41:25;99383.81;;;6.25;91.80
14089;BME280;7120;52.890;6.040;2023-03-14T09:44:03;99387.25;;;6.40;90.74
14089;BME280;7120;52.890;6.040;2023-03-14T09:46:31;99386.75;;;6.60;88.17
14089;BME280;7120;52.890;6.040;2023-03-14T09:48:57;99405.59;;;6.87;87.00
14089;BME280;7120;52.890;6.040;2023-03-14T09:51:23;99402.53;;;7.20;83.23
14089;BME280;7120;52.890;6.040;2023-03-14T09:53:50;99398.28;;;7.45;80.30
14089;BME280;7120;52.890;6.040;2023-03-14T09:56:23;99416.91;;;7.69;80.33
14089;BME280;7120;52.890;6.040;2023-03-14T09:58:55;99428.84;;;7.42;80.84
14089;BME280;7120;52.890;6.040;2023-03-14T10:01:27;99444.69;;;7.09;79.59
14089;BME280;7120;52.890;6.040;2023-03-14T10:04:04;99453.88;;;7.22;78.78
14089;BME280;7120;52.890;6.040;2023-03-14T10:06:31;99457.78;;;6.98;75.79
14089;BME280;7120;52.890;6.040;2023-03-14T10:08:57;99473.66;;;6.82;73.50
14089;BME280;7120;52.890;6.040;2023-03-14T10:11:23;99472.81;;;7.04;74.80
14089;BME280;7120;52.890;6.040;2023-03-14T10:14:03;99479.44;;;6.89;72.97
14089;BME280;7120;52.890;6.040;2023-03-14T10:16:43;99506.97;;;6.97;73.63
14089;BME280;7120;52.890;6.040;2023-03-14T10:19:11;99498.75;;;6.57;71.23
14089;BME280;7120;52.890;6.040;2023-03-14T10:21:42;99520.00;;;6.77;72.52
14089;BME280;7120;52.890;6.040;2023-03-14T10:24:27;99530.09;;;7.08;72.41
14089;BME280;7120;52.890;6.040;2023-03-14T10:27:05;99534.03;;;7.33;73.14
14089;BME280;7120;52.890;6.040;2023-03-14T10:29:33;99535.59;;;7.25;67.45
14089;BME280;7120;52.890;6.040;2023-03-14T10:32:06;99552.44;;;7.27;67.83
14089;BME280;7120;52.890;6.040;2023-03-14T10:34:37;99565.31;;;7.13;68.01
14089;BME280;7120;52.890;6.040;2023-03-14T10:37:14;99570.06;;;6.85;67.24
14089;BME280;7120;52.890;6.040;2023-03-14T10:39:47;99589.94;;;6.94;71.16
14089;BME280;7120;52.890;6.040;2023-03-14T10:42:20;99593.22;;;6.82;67.80
14089;BME280;7120;52.890;6.040;2023-03-14T10:44:53;99601.81;;;6.98;64.23
14089;BME280;7120;52.890;6.040;2023-03-14T10:47:23;99599.19;;;7.38;64.62
14089;BME280;7120;52.890;6.040;2023-03-14T10:49:49;99611.88;;;7.42;66.97
14089;BME280;7120;52.890;6.040;2023-03-14T10:52:18;99629.91;;;7.38;64.26
14089;BME280;7120;52.890;6.040;2023-03-14T10:54:47;99639.56;;;8.15;61.32
14089;BME280;7120;52.890;6.040;2023-03-14T10:57:13;99643.50;;;8.32;57.58
14089;BME280;7120;52.890;6.040;2023-03-14T10:59:41;99662.34;;;7.88;60.46
14089;BME280;7120;52.890;6.040;2023-03-14T11:05:04;99685.56;;;8.57;56.78
14089;BME280;7120;52.890;6.040;2023-03-14T11:07:42;99690.47;;;9.03;50.89
14089;BME280;7120;52.890;6.040;2023-03-14T11:10:26;99697.50;;;9.04;52.51
14089;BME280;7120;52.890;6.040;2023-03-14T11:13:12;99705.78;;;8.73;54.96
14089;BME280;7120;52.890;6.040;2023-03-14T11:23:15;99738.22;;;7.36;58.05
14089;BME280;7120;52.890;6.040;2023-03-14T11:28:23;99762.34;;;7.15;56.59
14089;BME280;7120;52.890;6.040;2023-03-14T11:30:54;99783.53;;;8.08;55.63
14089;BME280;7120;52.890;6.040;2023-03-14T11:33:37;99792.13;;;8.95;53.62
14089;BME280;7120;52.890;6.040;2023-03-14T11:36:11;99785.06;;;7.69;55.78
14089;BME280;7120;52.890;6.040;2023-03-14T11:38:47;99783.84;;;8.07;55.35
14089;BME280;7120;52.890;6.040;2023-03-14T11:41:25;99799.47;;;8.86;57.59
14089;BME280;7120;52.890;6.040;2023-03-14T11:43:55;99804.09;;;8.68;48.92
14089;BME280;7120;52.890;6.040;2023-03-14T11:46:32;99815.72;;;8.60;48.29
14089;BME280;7120;52.890;6.040;2023-03-14T11:51:56;99840.22;;;9.48;50.79
14089;BME280;7120;52.890;6.040;2023-03-14T11:57:05;99843.88;;;9.34;50.64
14089;BME280;7120;52.890;6.040;2023-03-14T12:02:26;99869.47;;;9.73;46.58
14089;BME280;7120;52.890;6.040;2023-03-14T12:10:24;99868.34;;;9.00;50.33
14089;BME280;7120;52.890;6.040;2023-03-14T12:12:49;99881.34;;;8.41;53.28
14089;BME280;7120;52.890;6.040;2023-03-14T12:15:20;99897.47;;;8.60;50.89
14089;BME280;7120;52.890;6.040;2023-03-14T12:17:53;99887.69;;;8.81;54.42
14089;BME280;7120;52.890;6.040;2023-03-14T12:20:23;99898.22;;;9.79;48.83
14089;BME280;7120;52.890;6.040;2023-03-14T12:22:56;99904.56;;;10.87;50.44
14089;BME280;7120;52.890;6.040;2023-03-14T12:25:26;99918.56;;;10.94;50.98
14089;BME280;7120;52.890;6.040;2023-03-14T12:33:27;99930.59;;;9.06;52.70
14089;BME280;7120;52.890;6.040;2023-03-14T12:36:00;99932.63;;;9.80;50.33
14089;BME280;7120;52.890;6.040;2023-03-14T12:38:30;99930.47;;;10.90;50.86
14089;BME280;7120;52.890;6.040;2023-03-14T12:43:36;99950.84;;;8.16;51.92
14089;BME280;7120;52.890;6.040;2023-03-14T12:48:41;99950.63;;;8.26;51.87
14089;BME280;7120;52.890;6.040;2023-03-14T12:51:14;99961.53;;;8.48;50.55
14089;BME280;7120;52.890;6.040;2023-03-14T12:54:06;99983.16;;;8.90;49.52
14089;BME280;7120;52.890;6.040;2023-03-14T12:59:14;99982.19;;;8.94;48.59
14089;BME280;7120;52.890;6.040;2023-03-14T13:02:01;99981.69;;;8.61;46.08
14089;BME280;7120;52.890;6.040;2023-03-14T13:04:52;99992.91;;;9.13;45.15
14089;BME280;7120;52.890;6.040;2023-03-14T13:10:25;100014.41;;;9.15;43.71
14089;BME280;7120;52.890;6.040;2023-03-14T13:12:54;100012.81;;;8.91;46.08
14089;BME280;7120;52.890;6.040;2023-03-14T13:15:37;100011.22;;;9.21;45.63
14089;BME280;7120;52.890;6.040;2023-03-14T13:18:10;100027.44;;;8.50;50.95
14089;BME280;7120;52.890;6.040;2023-03-14T13:20:41;100021.19;;;7.72;51.47
14089;BME280;7120;52.890;6.040;2023-03-14T13:23:26;100028.06;;;8.70;51.37
14089;BME280;7120;52.890;6.040;2023-03-14T13:25:52;100037.19;;;9.10;50.14
14089;BME280;7120;52.890;6.040;2023-03-14T13:28:19;100042.22;;;8.36;53.43
14089;BME280;7120;52.890;6.040;2023-03-14T13:30:46;100054.50;;;8.47;53.87
14089;BME280;7120;52.890;6.040;2023-03-14T13:33:18;100056.94;;;8.71;48.88
14089;BME280;7120;52.890;6.040;2023-03-14T13:35:46;100062.97;;;8.45;48.76
14089;BME280;7120;52.890;6.040;2023-03-14T13:38:16;100072.22;;;8.58;49.59
14089;BME280;7120;52.890;6.040;2023-03-14T13:40:43;100073.75;;;8.50;52.66
14089;BME280;7120;52.890;6.040;2023-03-14T13:45:50;100091.88;;;7.91;50.60
14089;BME280;7120;52.890;6.040;2023-03-14T13:48:16;100098.81;;;7.70;53.97
14089;BME280;7120;52.890;6.040;2023-03-14T13:50:54;100097.97;;;7.42;54.30
14089;BME280;7120;52.890;6.040;2023-03-14T13:53:21;100094.84;;;7.49;52.68
14089;BME280;7120;52.890;6.040;2023-03-14T13:55:46;100108.63;;;7.98;51.28
14089;BME280;7120;52.890;6.040;2023-03-14T13:58:26;100116.16;;;8.15;46.79
14089;BME280;7120;52.890;6.040;2023-03-14T14:01:01;100124.72;;;8.22;48.71
14089;BME280;7120;52.890;6.040;2023-03-14T14:03:30;100131.28;;;7.94;49.26
14089;BME280;7120;52.890;6.040;2023-03-14T14:05:57;100132.31;;;7.38;52.08
14089;BME280;7120;52.890;6.040;2023-03-14T14:08:24;100142.00;;;6.93;49.39
14089;BME280;7120;52.890;6.040;2023-03-14T14:10:49;100163.84;;;7.39;49.12
14089;BME280;7120;52.890;6.040;2023-03-14T14:13:20;100175.06;;;7.51;48.52